createdAt,value
2019-05-09T00:01:24.045Z,7.50
2019-05-09T00:03:54.330Z,7.50
2019-05-09T00:06:23.920Z,7.40
2019-05-09T00:08:53.356Z,7.50
2019-05-09T00:11:24.443Z,7.50
2019-05-09T00:13:53.873Z,7.50
2019-05-09T00:16:23.610Z,7.40
2019-05-09T00:18:54.086Z,7.40
2019-05-09T00:21:24.771Z,7.40
2019-05-09T00:23:54.157Z,7.40
2019-05-09T00:26:23.635Z,7.40
2019-05-09T00:28:56.974Z,7.40
2019-05-09T00:31:33.872Z,7.50
2019-05-09T00:34:04.481Z,7.50
2019-05-09T00:36:33.533Z,7.50
2019-05-09T00:39:04.074Z,7.40
2019-05-09T00:41:33.138Z,7.40
2019-05-09T00:46:55.375Z,7.40
2019-05-09T00:49:25.986Z,7.50
2019-05-09T00:51:54.791Z,7.50
2019-05-09T00:54:24.139Z,7.40
2019-05-09T00:56:53.958Z,7.40
2019-05-09T00:59:24.073Z,7.40
2019-05-09T01:01:54.320Z,7.40
2019-05-09T01:04:24.107Z,7.50
2019-05-09T01:06:54.027Z,7.40
2019-05-09T01:09:24.221Z,7.50
2019-05-09T01:11:53.482Z,7.50
2019-05-09T01:14:25.396Z,7.40
2019-05-09T01:16:54.208Z,7.30
2019-05-09T01:19:23.404Z,7.40
2019-05-09T01:21:54.182Z,7.40
2019-05-09T01:24:23.293Z,7.40
2019-05-09T01:26:54.127Z,7.40
2019-05-09T01:29:25.467Z,7.40
2019-05-09T01:31:55.835Z,7.40
2019-05-09T01:34:26.414Z,7.40
2019-05-09T01:36:59.803Z,7.40
2019-05-09T01:39:30.243Z,7.40
2019-05-09T01:41:59.009Z,7.40
2019-05-09T01:44:28.903Z,7.40
2019-05-09T01:46:57.776Z,7.40
2019-05-09T01:49:26.518Z,7.40
2019-05-09T01:51:55.334Z,7.40
2019-05-09T01:54:25.936Z,7.40
2019-05-09T01:56:54.892Z,7.40
2019-05-09T01:59:24.379Z,7.40
2019-05-09T02:01:54.250Z,7.40
2019-05-09T02:04:24.240Z,7.40
2019-05-09T02:06:53.883Z,7.40
2019-05-09T02:09:23.432Z,7.40
2019-05-09T02:11:54.448Z,7.40
2019-05-09T02:14:24.598Z,7.40
2019-05-09T02:19:44.122Z,7.40
2019-05-09T02:22:31.272Z,7.40
2019-05-09T02:25:00.310Z,7.40
2019-05-09T02:27:29.141Z,7.40
2019-05-09T02:29:57.922Z,7.30
2019-05-09T02:32:26.816Z,7.40
2019-05-09T02:34:55.628Z,7.30
2019-05-09T02:37:24.405Z,7.30
2019-05-09T02:39:53.312Z,7.30
2019-05-09T02:42:22.063Z,7.30
2019-05-09T02:44:50.890Z,7.30
2019-05-09T02:47:21.587Z,7.30
2019-05-09T02:49:50.324Z,7.30
2019-05-09T02:52:19.947Z,7.30
2019-05-09T02:54:50.017Z,7.30
2019-05-09T02:57:19.216Z,7.30
2019-05-09T02:59:59.416Z,7.30
2019-05-09T03:02:48.729Z,7.30
2019-05-09T03:05:19.605Z,7.30
2019-05-09T03:07:50.074Z,7.30
2019-05-09T03:10:21.351Z,7.30
2019-05-09T03:12:50.653Z,7.40
2019-05-09T03:15:20.704Z,7.40
2019-05-09T03:17:50.103Z,7.40
2019-05-09T03:20:35.576Z,7.40
2019-05-09T03:23:04.636Z,7.40
2019-05-09T03:25:33.536Z,7.40
2019-05-09T03:28:20.088Z,7.30
2019-05-09T03:30:50.493Z,7.40
2019-05-09T03:33:20.117Z,7.40
2019-05-09T03:35:49.310Z,7.40
2019-05-09T03:38:18.380Z,7.40
2019-05-09T03:40:47.701Z,7.40
2019-05-09T03:43:18.349Z,7.40
2019-05-09T03:45:51.914Z,7.50
2019-05-09T03:48:28.693Z,7.50
2019-05-09T03:50:57.800Z,7.50
2019-05-09T03:53:27.558Z,7.50
2019-05-09T03:55:58.186Z,7.40
2019-05-09T03:58:28.124Z,7.40
2019-05-09T04:00:58.024Z,7.50
2019-05-09T04:03:27.666Z,7.50
2019-05-09T04:06:02.624Z,7.50
2019-05-09T04:08:28.239Z,7.40
2019-05-09T04:10:58.676Z,7.40
2019-05-09T04:13:32.149Z,7.40
2019-05-09T04:16:01.439Z,7.40
2019-05-09T04:18:30.228Z,7.40
2019-05-09T04:20:59.011Z,7.50
2019-05-09T04:23:27.904Z,7.50
2019-05-09T04:26:01.180Z,7.50
2019-05-09T04:28:30.339Z,7.50
2019-05-09T04:30:59.157Z,7.50
2019-05-09T04:33:28.118Z,7.50
2019-05-09T04:35:57.937Z,7.50
2019-05-09T04:38:27.930Z,7.50
2019-05-09T04:40:58.334Z,7.50
2019-05-09T04:43:35.466Z,7.60
2019-05-09T04:45:59.554Z,7.60
2019-05-09T04:48:32.340Z,7.60
2019-05-09T04:51:07.868Z,7.60
2019-05-09T04:53:37.676Z,7.60
2019-05-09T04:56:11.038Z,7.70
2019-05-09T04:58:39.988Z,7.70
2019-05-09T05:01:28.165Z,7.70
2019-05-09T05:03:58.202Z,7.70
2019-05-09T05:06:28.073Z,7.70
2019-05-09T05:08:58.625Z,7.70
2019-05-09T05:11:28.020Z,7.80
2019-05-09T05:13:58.674Z,7.80
2019-05-09T05:16:27.510Z,7.80
2019-05-09T05:18:59.196Z,7.80
2019-05-09T05:21:34.094Z,7.90
2019-05-09T05:24:10.107Z,7.90
2019-05-09T05:27:29.787Z,7.90
2019-05-09T05:30:20.218Z,8.00
2019-05-09T05:33:05.054Z,8.00
2019-05-09T05:35:48.026Z,8.00
2019-05-09T05:39:23.231Z,8.10
2019-05-09T05:42:27.708Z,8.10
2019-05-09T05:44:58.183Z,8.10
2019-05-09T05:47:37.984Z,8.20
2019-05-09T05:50:08.393Z,8.20
2019-05-09T05:52:37.591Z,8.20
2019-05-09T05:55:07.725Z,8.30
2019-05-09T05:57:38.576Z,8.30
2019-05-09T06:00:08.383Z,8.30
2019-05-09T06:02:38.506Z,8.40
2019-05-09T06:05:08.446Z,8.40
2019-05-09T06:07:37.907Z,8.40
2019-05-09T06:10:08.292Z,8.50
2019-05-09T06:12:38.042Z,8.50
2019-05-09T06:15:07.710Z,8.50
2019-05-09T06:17:38.067Z,8.60
2019-05-09T06:20:08.951Z,8.60
2019-05-09T06:22:38.293Z,8.70
2019-05-09T06:25:09.852Z,8.70
2019-05-09T06:27:37.711Z,8.70
2019-05-09T06:30:08.772Z,8.70
2019-05-09T06:32:38.448Z,8.80
2019-05-09T06:35:08.352Z,8.80
2019-05-09T06:37:38.341Z,8.80
2019-05-09T06:40:08.117Z,8.80
2019-05-09T06:42:38.049Z,8.90
2019-05-09T06:45:08.717Z,8.90
2019-05-09T06:47:39.117Z,8.90
2019-05-09T06:50:09.920Z,8.90
2019-05-09T06:52:38.664Z,9.00
2019-05-09T06:55:08.637Z,9.00
2019-05-09T06:57:42.174Z,9.00
2019-05-09T07:00:10.257Z,9.00
2019-05-09T07:02:43.492Z,9.10
2019-05-09T07:05:13.894Z,9.10
2019-05-09T07:08:01.220Z,9.10
2019-05-09T07:10:30.032Z,9.10
2019-05-09T07:12:58.774Z,9.20
2019-05-09T07:15:28.298Z,9.20
2019-05-09T07:17:57.611Z,9.20
2019-05-09T07:20:28.346Z,9.20
2019-05-09T07:22:58.296Z,9.30
2019-05-09T07:25:31.976Z,9.30
2019-05-09T07:28:01.298Z,9.40
2019-05-09T07:30:48.183Z,9.40
2019-05-09T07:33:19.450Z,9.40
2019-05-09T07:35:48.376Z,9.40
2019-05-09T07:38:18.755Z,9.50
2019-05-09T07:40:47.881Z,9.50
2019-05-09T07:43:18.177Z,9.60
2019-05-09T07:46:08.787Z,9.60
2019-05-09T07:48:38.370Z,9.60
2019-05-09T07:51:07.995Z,9.60
2019-05-09T07:53:38.093Z,9.60
2019-05-09T07:56:07.979Z,9.70
2019-05-09T07:58:37.785Z,9.70
2019-05-09T08:01:08.458Z,9.80
2019-05-09T08:03:38.422Z,9.80
2019-05-09T08:06:08.751Z,9.80
2019-05-09T08:08:38.607Z,9.80
2019-05-09T08:11:08.915Z,9.90
2019-05-09T08:13:39.248Z,9.90
2019-05-09T08:16:14.176Z,9.90
2019-05-09T08:18:39.055Z,9.90
2019-05-09T08:21:08.441Z,9.90
2019-05-09T08:23:38.098Z,9.90
2019-05-09T08:26:08.791Z,10.00
2019-05-09T08:28:38.913Z,10.00
2019-05-09T08:31:08.687Z,10.00
2019-05-09T08:33:38.183Z,10.00
2019-05-09T08:36:08.792Z,10.10
2019-05-09T08:38:38.918Z,10.10
2019-05-09T08:41:09.432Z,10.20
2019-05-09T08:43:39.712Z,10.30
2019-05-09T08:46:09.427Z,10.30
2019-05-09T08:48:38.342Z,10.30
2019-05-09T08:51:24.371Z,10.40
2019-05-09T08:53:53.177Z,10.40
2019-05-09T08:56:22.159Z,10.40
2019-05-09T08:58:51.043Z,10.40
2019-05-09T09:01:31.409Z,10.50
2019-05-09T09:03:50.285Z,10.50
2019-05-09T09:06:19.200Z,10.60
2019-05-09T09:08:48.391Z,10.60
2019-05-09T09:11:18.745Z,10.60
2019-05-09T09:13:48.384Z,10.70
2019-05-09T09:16:22.060Z,10.70
2019-05-09T09:18:48.197Z,10.80
2019-05-09T09:21:18.328Z,10.80
2019-05-09T09:23:50.605Z,10.80
2019-05-09T09:26:18.331Z,10.80
2019-05-09T09:28:48.439Z,10.90
2019-05-09T09:31:17.972Z,10.90
2019-05-09T09:33:47.984Z,10.90
2019-05-09T09:36:17.885Z,10.90
2019-05-09T09:38:48.044Z,10.90
2019-05-09T09:41:18.146Z,10.90
2019-05-09T09:43:47.765Z,10.90
2019-05-09T09:46:18.182Z,10.90
2019-05-09T09:48:48.031Z,11.00
2019-05-09T09:51:18.559Z,11.00
2019-05-09T09:53:48.968Z,11.00
2019-05-09T09:56:22.102Z,11.00
2019-05-09T09:58:50.101Z,11.00
2019-05-09T10:01:28.774Z,11.00
2019-05-09T10:04:19.062Z,11.00
2019-05-09T10:06:35.215Z,11.00
2019-05-09T10:09:05.516Z,11.00
2019-05-09T10:11:34.312Z,11.10
2019-05-09T10:14:03.634Z,11.10
2019-05-09T10:16:34.111Z,11.20
2019-05-09T10:19:04.691Z,11.20
2019-05-09T10:21:38.221Z,11.20
2019-05-09T10:24:07.996Z,11.30
2019-05-09T10:26:39.010Z,11.40
2019-05-09T10:29:08.269Z,11.40
2019-05-09T10:31:39.206Z,11.60
2019-05-09T10:34:10.710Z,11.60
2019-05-09T10:36:38.536Z,11.70
2019-05-09T10:39:08.256Z,11.70
2019-05-09T10:41:37.620Z,11.80
2019-05-09T10:44:09.373Z,11.80
2019-05-09T10:46:52.468Z,11.90
2019-05-09T10:49:10.534Z,12.00
2019-05-09T10:51:39.261Z,12.20
2019-05-09T10:54:08.349Z,12.40
2019-05-09T10:56:38.431Z,12.50
2019-05-09T10:59:07.973Z,12.50
2019-05-09T11:01:38.130Z,12.60
2019-05-09T11:04:08.194Z,12.50
2019-05-09T11:06:38.238Z,12.40
2019-05-09T11:09:09.559Z,12.40
2019-05-09T11:11:38.509Z,12.40
2019-05-09T11:14:08.594Z,12.50
2019-05-09T11:16:44.943Z,12.50
2019-05-09T11:19:08.264Z,12.60
2019-05-09T11:21:39.189Z,12.60
2019-05-09T11:24:08.565Z,12.70
2019-05-09T11:26:39.589Z,12.70
2019-05-09T11:29:08.122Z,12.70
2019-05-09T11:31:38.467Z,12.80
2019-05-09T11:34:08.901Z,12.80
2019-05-09T11:36:38.284Z,12.80
2019-05-09T11:39:10.758Z,12.80
2019-05-09T11:41:38.959Z,12.80
2019-05-09T11:44:08.474Z,12.70
2019-05-09T11:46:38.310Z,12.60
2019-05-09T11:49:08.332Z,12.60
2019-05-09T11:51:37.469Z,12.50
2019-05-09T11:54:08.858Z,12.50
2019-05-09T11:56:38.466Z,12.50
2019-05-09T11:59:08.013Z,12.50
2019-05-09T12:01:39.449Z,12.50
2019-05-09T12:04:08.172Z,12.50
2019-05-09T12:06:38.387Z,12.40
2019-05-09T12:09:28.869Z,12.30
2019-05-09T12:11:58.991Z,12.30
2019-05-09T12:14:27.717Z,12.20
2019-05-09T12:16:56.646Z,12.20
2019-05-09T12:19:25.403Z,12.10
2019-05-09T12:21:54.140Z,12.10
2019-05-09T12:24:23.165Z,12.10
2019-05-09T12:26:51.893Z,12.10
2019-05-09T12:29:20.653Z,12.10
2019-05-09T12:31:49.535Z,12.10
2019-05-09T12:34:19.231Z,12.10
2019-05-09T12:36:49.307Z,12.10
2019-05-09T12:39:19.066Z,12.10
2019-05-09T12:41:48.557Z,12.10
2019-05-09T12:44:18.201Z,12.10
2019-05-09T12:46:48.841Z,12.00
2019-05-09T12:49:19.039Z,12.00
2019-05-09T12:51:48.119Z,11.90
2019-05-09T12:54:19.065Z,11.90
2019-05-09T12:56:48.560Z,11.90
2019-05-09T12:59:18.681Z,11.90
2019-05-09T13:01:49.243Z,11.80
2019-05-09T13:04:18.380Z,11.80
2019-05-09T13:06:48.839Z,11.80
2019-05-09T13:09:17.977Z,11.80
2019-05-09T13:11:48.297Z,11.80
2019-05-09T13:14:19.404Z,11.80
2019-05-09T13:16:53.667Z,11.90
2019-05-09T13:19:24.345Z,11.90
2019-05-09T13:21:53.251Z,11.90
2019-05-09T13:24:22.065Z,11.90
2019-05-09T13:26:51.703Z,11.80
2019-05-09T13:29:20.531Z,11.90
2019-05-09T13:31:49.270Z,11.80
2019-05-09T13:34:18.799Z,11.80
2019-05-09T13:36:48.906Z,11.80
2019-05-09T13:39:18.107Z,11.90
2019-05-09T13:41:47.600Z,11.80
2019-05-09T13:44:18.140Z,11.80
2019-05-09T13:46:48.834Z,11.80
2019-05-09T13:49:19.335Z,11.80
2019-05-09T13:51:57.552Z,11.80
2019-05-09T13:54:18.865Z,11.80
2019-05-09T13:56:54.888Z,11.80
2019-05-09T13:59:18.742Z,11.80
2019-05-09T14:01:48.088Z,11.80
2019-05-09T14:04:16.914Z,11.80
2019-05-09T14:06:45.796Z,11.80
2019-05-09T14:09:14.545Z,11.80
2019-05-09T14:11:43.271Z,11.80
2019-05-09T14:14:12.338Z,11.80
2019-05-09T14:16:41.068Z,11.80
2019-05-09T14:19:30.264Z,11.80
2019-05-09T14:21:40.438Z,11.80
2019-05-09T14:24:15.173Z,11.70
2019-05-09T14:26:40.292Z,11.80
2019-05-09T14:29:12.829Z,11.80
2019-05-09T14:31:39.642Z,11.80
2019-05-09T14:34:08.905Z,11.90
2019-05-09T14:36:39.112Z,11.80
2019-05-09T14:39:09.379Z,11.90
2019-05-09T14:41:39.086Z,11.90
2019-05-09T14:44:09.314Z,11.80
2019-05-09T14:46:39.206Z,11.70
2019-05-09T14:49:08.167Z,11.70
2019-05-09T14:51:38.018Z,11.70
2019-05-09T14:54:08.336Z,11.70
2019-05-09T14:56:42.017Z,11.70
2019-05-09T14:59:09.770Z,11.70
2019-05-09T15:01:39.917Z,11.70
2019-05-09T15:04:09.177Z,11.60
2019-05-09T15:06:38.049Z,11.70
2019-05-09T15:09:08.456Z,11.60
2019-05-09T15:11:39.434Z,11.60
2019-05-09T15:14:08.469Z,11.60
2019-05-09T15:16:39.130Z,11.60
2019-05-09T15:19:08.549Z,11.50
2019-05-09T15:21:38.357Z,11.50
2019-05-09T15:24:09.268Z,11.50
2019-05-09T15:26:38.390Z,11.50
2019-05-09T15:29:08.132Z,11.40
2019-05-09T15:31:41.876Z,11.40
2019-05-09T15:34:10.763Z,11.40
2019-05-09T15:36:39.533Z,11.40
2019-05-09T15:39:09.449Z,11.40
2019-05-09T15:41:38.693Z,11.40
2019-05-09T15:44:08.437Z,11.40
2019-05-09T15:46:44.768Z,11.40
2019-05-09T15:49:13.599Z,11.40
2019-05-09T15:51:42.471Z,11.40
2019-05-09T15:54:11.497Z,11.40
2019-05-09T15:56:43.600Z,11.40
2019-05-09T15:59:10.851Z,11.40
2019-05-09T16:01:39.728Z,11.40
2019-05-09T16:04:08.746Z,11.40
2019-05-09T16:06:39.160Z,11.40
2019-05-09T16:09:11.887Z,11.40
2019-05-09T16:11:38.768Z,11.40
2019-05-09T16:14:07.717Z,11.30
2019-05-09T16:16:38.542Z,11.30
2019-05-09T16:19:08.938Z,11.30
2019-05-09T16:21:38.439Z,11.40
2019-05-09T16:24:08.073Z,11.30
2019-05-09T16:26:38.325Z,11.30
2019-05-09T16:29:08.479Z,11.20
2019-05-09T16:31:38.702Z,11.20
2019-05-09T16:34:09.397Z,11.20
2019-05-09T16:36:39.100Z,11.20
2019-05-09T16:39:08.402Z,11.20
2019-05-09T16:41:39.222Z,11.20
2019-05-09T16:44:07.939Z,11.20
2019-05-09T16:46:37.660Z,11.20
2019-05-09T16:49:11.695Z,11.10
2019-05-09T16:51:37.867Z,11.10
2019-05-09T16:54:07.816Z,11.00
2019-05-09T16:56:38.114Z,11.00
2019-05-09T16:59:08.276Z,11.00
2019-05-09T17:01:39.669Z,11.00
2019-05-09T17:04:08.565Z,11.00
2019-05-09T17:06:38.183Z,11.00
2019-05-09T17:09:10.210Z,11.00
2019-05-09T17:11:39.646Z,11.00
2019-05-09T17:14:08.706Z,11.00
2019-05-09T17:16:37.923Z,11.00
2019-05-09T17:19:06.871Z,10.90
2019-05-09T17:21:40.156Z,10.90
2019-05-09T17:24:13.522Z,10.90
2019-05-09T17:26:42.955Z,10.80
2019-05-09T17:29:11.706Z,10.80
2019-05-09T17:31:40.503Z,10.80
2019-05-09T17:34:09.496Z,10.80
2019-05-09T17:36:38.603Z,10.80
2019-05-09T17:39:08.086Z,10.80
2019-05-09T17:41:37.994Z,10.80
2019-05-09T17:44:07.638Z,10.80
2019-05-09T17:46:38.485Z,10.70
2019-05-09T17:49:08.276Z,10.70
2019-05-09T17:51:37.296Z,10.70
2019-05-09T17:54:08.102Z,10.70
2019-05-09T17:56:37.951Z,10.70
2019-05-09T17:59:08.589Z,10.70
2019-05-09T18:01:37.735Z,10.70
2019-05-09T18:04:08.870Z,10.70
2019-05-09T18:06:37.947Z,10.70
2019-05-09T18:09:08.443Z,10.70
2019-05-09T18:11:37.846Z,10.70
2019-05-09T18:14:08.154Z,10.70
2019-05-09T18:16:39.032Z,10.70
2019-05-09T18:19:08.461Z,10.70
2019-05-09T18:21:50.410Z,10.70
2019-05-09T18:24:08.849Z,10.60
2019-05-09T18:26:38.300Z,10.70
2019-05-09T18:29:07.495Z,10.70
2019-05-09T18:31:54.445Z,10.70
2019-05-09T18:34:23.283Z,10.70
2019-05-09T18:36:52.109Z,10.70
2019-05-09T18:39:21.541Z,10.70
2019-05-09T18:41:50.279Z,10.70
2019-05-09T18:44:19.112Z,10.70
2019-05-09T18:46:48.223Z,10.70
2019-05-09T18:49:17.204Z,10.60
2019-05-09T18:51:45.987Z,10.60
2019-05-09T18:54:15.083Z,10.60
2019-05-09T18:56:43.833Z,10.60
2019-05-09T18:59:12.584Z,10.60
2019-05-09T19:01:41.599Z,10.60
2019-05-09T19:04:10.412Z,10.60
2019-05-09T19:06:39.928Z,10.60
2019-05-09T19:09:08.946Z,10.60
2019-05-09T19:11:37.789Z,10.60
2019-05-09T19:14:07.836Z,10.60
2019-05-09T19:16:47.378Z,10.60
2019-05-09T19:19:17.750Z,10.60
2019-05-09T19:21:54.854Z,10.60
2019-05-09T19:24:23.794Z,10.60
2019-05-09T19:26:52.531Z,10.60
2019-05-09T19:29:21.356Z,10.60
2019-05-09T19:31:50.195Z,10.50
2019-05-09T19:34:19.086Z,10.50
2019-05-09T19:36:48.025Z,10.50
2019-05-09T19:39:16.774Z,10.50
2019-05-09T19:41:45.563Z,10.50
2019-05-09T19:44:14.385Z,10.50
2019-05-09T19:46:43.223Z,10.40
2019-05-09T19:49:12.042Z,10.40
2019-05-09T19:51:40.968Z,10.40
2019-05-09T19:54:09.753Z,10.40
2019-05-09T19:56:38.564Z,10.40
2019-05-09T19:59:08.516Z,10.50
2019-05-09T20:01:37.438Z,10.50
2019-05-09T20:04:06.203Z,10.40
2019-05-09T20:06:35.131Z,10.40
2019-05-09T20:09:06.841Z,10.40
2019-05-09T20:11:43.669Z,10.40
2019-05-09T20:14:14.057Z,10.40
2019-05-09T20:16:44.691Z,10.40
2019-05-09T20:20:12.714Z,10.40
2019-05-09T20:22:52.378Z,10.30
2019-05-09T20:25:12.068Z,10.30
2019-05-09T20:27:40.916Z,10.30
2019-05-09T20:30:10.081Z,10.30
2019-05-09T20:32:38.921Z,10.30
2019-05-09T20:35:07.975Z,10.30
2019-05-09T20:37:37.158Z,10.30
2019-05-09T20:40:09.366Z,10.20
2019-05-09T20:42:38.595Z,10.20
2019-05-09T20:45:08.331Z,10.20
2019-05-09T20:47:37.230Z,10.20
2019-05-09T20:50:07.158Z,10.20
2019-05-09T20:52:36.140Z,10.10
2019-05-09T20:55:05.972Z,10.10
2019-05-09T20:57:35.169Z,10.10
2019-05-09T21:00:06.301Z,10.00
2019-05-09T21:02:35.292Z,10.00
2019-05-09T21:05:05.909Z,10.00
2019-05-09T21:07:34.903Z,9.90
2019-05-09T21:10:04.911Z,9.90
2019-05-09T21:12:34.234Z,9.90
2019-05-09T21:15:03.329Z,9.80
2019-05-09T21:17:32.728Z,9.80
2019-05-09T21:20:01.923Z,9.80
2019-05-09T21:22:31.242Z,9.80
2019-05-09T21:25:00.409Z,9.80
2019-05-09T21:27:30.039Z,9.80
2019-05-09T21:29:59.037Z,9.80
2019-05-09T21:32:28.036Z,9.70
2019-05-09T21:34:56.928Z,9.70
2019-05-09T21:37:25.658Z,9.70
2019-05-09T21:39:54.412Z,9.70
2019-05-09T21:42:23.309Z,9.70
2019-05-09T21:44:52.040Z,9.70
2019-05-09T21:47:20.794Z,9.60
2019-05-09T21:49:49.769Z,9.60
2019-05-09T21:52:18.576Z,9.60
2019-05-09T21:54:47.310Z,9.60
2019-05-09T21:57:16.225Z,9.60
2019-05-09T21:59:44.970Z,9.60
2019-05-09T22:02:14.362Z,9.60
2019-05-09T22:04:43.194Z,9.50
2019-05-09T22:07:12.024Z,9.50
2019-05-09T22:09:40.816Z,9.50
2019-05-09T22:12:09.817Z,9.50
2019-05-09T22:14:38.556Z,9.50
2019-05-09T22:17:17.995Z,9.50
2019-05-09T22:19:46.749Z,9.50
2019-05-09T22:22:15.573Z,9.50
2019-05-09T22:24:44.699Z,9.40
2019-05-09T22:27:13.495Z,9.40
2019-05-09T22:29:42.336Z,9.40
2019-05-09T22:32:11.175Z,9.40
2019-05-09T22:34:39.932Z,9.40
2019-05-09T22:37:08.676Z,9.40
2019-05-09T22:39:37.536Z,9.30
2019-05-09T22:42:06.276Z,9.30
2019-05-09T22:44:35.116Z,9.30
2019-05-09T22:47:04.027Z,9.30
2019-05-09T22:49:33.043Z,9.30
2019-05-09T22:52:01.868Z,9.30
2019-05-09T22:54:31.416Z,9.30
2019-05-09T22:57:00.192Z,9.20
2019-05-09T22:59:28.996Z,9.20
2019-05-09T23:01:57.828Z,9.20
2019-05-09T23:04:26.584Z,9.20
2019-05-09T23:06:55.397Z,9.20
2019-05-09T23:09:24.336Z,9.20
2019-05-09T23:11:53.089Z,9.20
2019-05-09T23:14:21.894Z,9.10
2019-05-09T23:16:50.996Z,9.10
2019-05-09T23:19:19.863Z,9.10
2019-05-09T23:21:48.707Z,9.10
2019-05-09T23:24:28.183Z,9.10
2019-05-09T23:26:49.714Z,9.10
2019-05-09T23:29:18.523Z,9.10
2019-05-09T23:31:48.999Z,9.10
2019-05-09T23:34:17.746Z,9.10
2019-05-09T23:36:46.476Z,9.10
2019-05-09T23:39:19.964Z,9.10
2019-05-09T23:41:48.710Z,9.00
2019-05-09T23:44:17.477Z,9.00
2019-05-09T23:46:46.401Z,9.00
2019-05-09T23:49:15.182Z,9.00
2019-05-09T23:51:48.848Z,9.00
2019-05-09T23:54:48.063Z,9.00
2019-05-09T23:57:28.850Z,8.90
